Terminal Aerodrome Forecast
Issued by NWS Louisville, KY

Home | Current Version | Previous Version | Text Only | Print | Product List | Glossary On
Versions: 1 2 3 4 5 6 7 8 9 10 11 12 13 14 15 16 17
000
FTUS43 KLMK 031729
TAFSDF
TAF
KSDF 031729Z 0318/0424 29008KT P6SM BKN035
     FM031900 31006KT P6SM VCSH SCT025 BKN035
     FM032300 30005KT P6SM BKN060
     FM041500 23012G18KT 5SM -SHRA BR SCT015 BKN025
     FM041800 27013G19KT P6SM VCSH BKN025=

USA.gov is the U.S. government's official web portal to all federal, state and local government web resources and services.